Elrosa, Minnesota
Current Conditions -  °F | °C
As of 10:33 PM on Tuesday 21 Oct 2014 (Local Time) from KD39 Reporting Station
Clear Clear  
Wind Chill: 43°   Ceiling: Unl
Heat Index: 48°   Visibility: 10mi
Dew Point: 40°   Wind: 13mph
Humidity: 74%   Direction: 120°ESE
Pressure: 30.09"   Gusts: NA
Location:  45.56°N, 94.95°W
Report Text: KD39 220333Z AUTO 12011KT 10SM CLR 09/05 A3009 RMK AO2 T00900045
Loading
Personal Weather Stations






























Interactive Weather Map
Tropical Storm Tracking
New forecast layout! Learn more

10-Day Weather Forecast

Advertisements
Track Severe Weather on mobile